• Join FlightAware (Why Join?)
  • Login
  • US Flag 
05:22AM EDT


 

Airport Tracker/Info


-or-


 

Live Flight TrackerFlight Track Log ✈ N6671X ✈ 14-Nov-2013 ✈ KSMS - KSHD

Flight Track Log - Related Links

Times and Time Zones

All times are in EST time to prevent confusion due to time zone crossing. See the N6671X flight status page for this flight to view local times or setup timezone preferences in your user account.

Time Position Orientation Groundspeed Altitude Reporting Facility
EST Latitude Longitude Course Direction KTS MPH feet Rate Location/Type
04:43PM 34.2657 -80.2732 15° North  Level Estimated
04:44PM 34.3106 -80.2574 16° North  Level FlightAware Approximate
04:45PM 34.3554 -80.2417 16° North  Level FlightAware Approximate
04:46PM 34.4003 -80.2259 16° North  Level FlightAware Approximate
04:47PM 34.4452 -80.2101 16° North  Level FlightAware Approximate
04:48PM 34.4900 -80.1942 16° North  Level FlightAware Approximate
04:49PM 34.5349 -80.1784 16° North  Level FlightAware Approximate
04:50PM 34.5798 -80.1626 16° North  Level FlightAware Approximate
04:51PM 34.6249 -80.1478 14° North  Level Estimated
04:52PM 34.6700 -80.1332 15° North  Level FlightAware Approximate
04:53PM 34.7152 -80.1185 15° North  Level FlightAware Approximate
04:54PM 34.7603 -80.1039 15° North  Level FlightAware Approximate
04:55PM 34.8055 -80.0892 15° North  Level FlightAware Approximate
04:56PM 34.8506 -80.0746 15° North  Level FlightAware Approximate
04:57PM 34.8957 -80.0599 15° North  Level FlightAware Approximate
04:58PM 34.9409 -80.0452 15° North  Level FlightAware Approximate
04:59PM 34.9860 -80.0305 15° North  Level FlightAware Approximate
05:00PM 35.0312 -80.0157 15° North  Level FlightAware Approximate
05:01PM 35.0762 -80.0008 16° North  Level Estimated
05:02PM 35.1212 -79.9853 16° North  Level FlightAware Approximate
05:03PM 35.1662 -79.9698 16° North  Level FlightAware Approximate
05:04PM 35.2112 -79.9544 16° North  Level FlightAware Approximate
05:05PM 35.2561 -79.9389 16° North  Level FlightAware Approximate
05:06PM 35.3011 -79.9233 16° North  Level FlightAware Approximate
05:07PM 35.3461 -79.9078 16° North  Level FlightAware Approximate
05:08PM 35.3910 -79.8922 16° North  Level FlightAware Approximate
05:09PM 35.4360 -79.8766 16° North  Level FlightAware Approximate
05:10PM 35.4809 -79.8610 16° North  Level FlightAware Approximate
05:11PM 35.5259 -79.8454 16° North  Level FlightAware Approximate
05:12PM 35.5709 -79.8298 16° North  Level FlightAware Approximate
05:13PM 35.6158 -79.8141 16° North  Level FlightAware Approximate
05:14PM 35.6608 -79.7985 16° North  Level FlightAware Approximate
05:15PM 35.7057 -79.7828 16° North  Level FlightAware Approximate
05:16PM 35.7507 -79.7671 16° North  Level FlightAware Approximate
05:17PM 35.7956 -79.7514 16° North  Level FlightAware Approximate
05:18PM 35.8406 -79.7356 16° North  Level FlightAware Approximate
05:19PM 35.8855 -79.7199 16° North  Level FlightAware Approximate
05:20PM 35.9304 -79.7041 16° North  Level FlightAware Approximate
05:21PM 35.9754 -79.6883 16° North  Level FlightAware Approximate
05:22PM 36.0203 -79.6725 16° North  Level FlightAware Approximate
05:23PM 36.0653 -79.6567 16° North  Level FlightAware Approximate
05:24PM 36.1103 -79.6415 15° North  Level Estimated
05:25PM 36.1554 -79.6263 15° North  Level FlightAware Approximate
05:25PM 36.2494 -79.5431 15° North 187 215 9,100  Level Washington Center
05:26PM 36.2005 -79.6111 15° North  Level FlightAware Approximate
05:26PM 36.3022 -79.5250 15° North 187 215 9,000  Level Washington Center
05:27PM 36.2456 -79.5958 15° North  Level FlightAware Approximate
05:27PM 36.3464 -79.5144 11° North 181 208 9,100  Level Washington Center
05:28PM 36.2906 -79.5806 15° North  Level FlightAware Approximate
05:28PM 36.4011 -79.4964 15° North 181 208 9,100  Level Washington Center
05:29PM 36.3357 -79.5653 15° North  Level FlightAware Approximate
05:29PM 36.4456 -79.4806 16° North 181 208 9,100  Level Washington Center
05:30PM 36.3808 -79.5500 15° North  Level FlightAware Approximate
05:30PM 36.4961 -79.4675 12° North 181 208 9,100  Level Washington Center
05:31PM 36.5447 -79.4494 17° North 181 208 9,000  Descending Washington Center
05:32PM 36.5950 -79.4364 12° North 181 208 9,100  Climbing Washington Center
05:33PM 36.6500 -79.4183 15° North 181 208 9,000 -60 Descending Washington Center
05:34PM 36.7006 -79.4028 14° North 181 208 9,000  Level Washington Center
05:35PM 36.7489 -79.3869 15° North 181 208 9,000  Level Washington Center
05:36PM 36.7994 -79.3711 14° North 181 208 9,100  Climbing Washington Center
05:37PM 36.8458 -79.3581 13° North 181 208 9,100  Level Washington Center
05:38PM 36.8964 -79.3397 16° North 181 208 9,100 -60 Level Washington Center
05:39PM 36.9450 -79.3239 15° North 181 208 9,000 -60 Descending Washington Center
05:40PM 36.9956 -79.3081 14° North 181 208 9,000  Level Washington Center
05:41PM 37.0525 -79.2900 14° North 181 208 9,000  Level Washington Center
05:42PM 37.1008 -79.2742 15° North 181 208 9,000  Level Washington Center
05:43PM 37.1536 -79.2583 13° North 181 208 9,000  Level Washington Center
05:44PM 37.2042 -79.2425 14° North 181 208 9,000 -120 Level Washington Center
05:46PM 37.2887 -79.2146 15° North  Level FlightAware Approximate
05:51PM 37.5667 -79.1167 North 196 226 8,300  Level Potomac TRACON
05:52PM 37.6167 -79.1000 15° North 209 241 7,700 -540 Descending Potomac TRACON
05:53PM 37.6141 -79.1064 15° North  Level FlightAware Approximate
05:53PM 37.6833 -79.0833 11° North 209 241 7,300  Level Potomac TRACON
05:54PM 37.6624 -79.1000 North  Level FlightAware Approximate
05:54PM 37.7333 -79.0667 15° North 208 239 7,000  Level Potomac TRACON
05:55PM 37.7112 -79.1000 North  Level FlightAware Approximate
05:55PM 37.7833 -79.0500 15° North 192 221 7,000  Level Potomac TRACON
05:56PM 37.8333 -79.0333 15° North 191 220 7,000 -120 Level Potomac TRACON
05:57PM 37.8833 -79.0167 15° North 193 222 6,800 -540 Descending Potomac TRACON
05:58PM 37.9500 -79.0000 11° North 209 241 6,000 -840 Descending Potomac TRACON
05:59PM 38.0000 -78.9833 15° North 212 244 5,200 -840 Descending Potomac TRACON